sensor_id;sensor_type;location;lat;lon;timestamp;P1;durP1;ratioP1;P2;durP2;ratioP2
18455;SDS011;9357;49.900;8.208;2022-11-14T00:00:03;13.38;;;9.27;;
18455;SDS011;9357;49.900;8.208;2022-11-14T00:01:37;11.57;;;9.23;;
18455;SDS011;9357;49.900;8.208;2022-11-14T00:03:10;13.00;;;9.30;;
18455;SDS011;9357;49.900;8.208;2022-11-14T00:04:44;11.63;;;9.55;;
18455;SDS011;9357;49.900;8.208;2022-11-14T00:06:18;11.65;;;9.75;;
18455;SDS011;9357;49.900;8.208;2022-11-14T00:07:51;10.45;;;8.90;;
18455;SDS011;9357;49.900;8.208;2022-11-14T00:09:24;11.23;;;9.40;;
18455;SDS011;9357;49.900;8.208;2022-11-14T00:10:56;12.30;;;9.85;;
18455;SDS011;9357;49.900;8.208;2022-11-14T00:12:29;10.45;;;8.98;;
18455;SDS011;9357;49.900;8.208;2022-11-14T00:14:02;11.55;;;9.38;;
18455;SDS011;9357;49.900;8.208;2022-11-14T00:15:35;11.57;;;9.35;;
18455;SDS011;9357;49.900;8.208;2022-11-14T00:17:08;12.15;;;9.60;;
18455;SDS011;9357;49.900;8.208;2022-11-14T00:18:40;12.85;;;9.65;;
18455;SDS011;9357;49.900;8.208;2022-11-14T00:20:13;11.70;;;9.82;;
18455;SDS011;9357;49.900;8.208;2022-11-14T00:21:48;11.95;;;9.88;;
18455;SDS011;9357;49.900;8.208;2022-11-14T00:23:22;11.63;;;9.65;;
18455;SDS011;9357;49.900;8.208;2022-11-14T00:24:55;12.10;;;10.38;;
18455;SDS011;9357;49.900;8.208;2022-11-14T00:26:28;12.30;;;9.35;;
18455;SDS011;9357;49.900;8.208;2022-11-14T00:28:00;12.27;;;9.75;;
18455;SDS011;9357;49.900;8.208;2022-11-14T00:29:33;10.95;;;9.15;;
18455;SDS011;9357;49.900;8.208;2022-11-14T00:31:06;11.68;;;10.13;;
18455;SDS011;9357;49.900;8.208;2022-11-14T00:32:40;12.88;;;10.65;;
18455;SDS011;9357;49.900;8.208;2022-11-14T00:34:13;14.15;;;10.82;;
18455;SDS011;9357;49.900;8.208;2022-11-14T00:35:50;13.20;;;10.25;;
18455;SDS011;9357;49.900;8.208;2022-11-14T00:37:25;13.35;;;10.40;;
18455;SDS011;9357;49.900;8.208;2022-11-14T00:38:58;12.27;;;10.50;;
18455;SDS011;9357;49.900;8.208;2022-11-14T00:40:31;14.10;;;11.05;;
18455;SDS011;9357;49.900;8.208;2022-11-14T00:42:03;17.38;;;11.35;;
18455;SDS011;9357;49.900;8.208;2022-11-14T00:43:35;15.15;;;11.57;;
18455;SDS011;9357;49.900;8.208;2022-11-14T00:45:08;13.35;;;10.43;;
18455;SDS011;9357;49.900;8.208;2022-11-14T00:46:42;13.77;;;10.70;;
18455;SDS011;9357;49.900;8.208;2022-11-14T00:48:15;16.60;;;11.05;;
18455;SDS011;9357;49.900;8.208;2022-11-14T00:49:47;12.13;;;10.32;;
18455;SDS011;9357;49.900;8.208;2022-11-14T00:51:20;14.52;;;10.93;;
18455;SDS011;9357;49.900;8.208;2022-11-14T00:52:54;13.48;;;11.13;;
18455;SDS011;9357;49.900;8.208;2022-11-14T00:54:27;14.40;;;11.43;;
18455;SDS011;9357;49.900;8.208;2022-11-14T00:56:00;13.85;;;11.75;;
18455;SDS011;9357;49.900;8.208;2022-11-14T00:57:33;14.02;;;11.68;;
18455;SDS011;9357;49.900;8.208;2022-11-14T00:59:06;15.25;;;11.80;;
18455;SDS011;9357;49.900;8.208;2022-11-14T01:00:39;15.38;;;12.10;;
18455;SDS011;9357;49.900;8.208;2022-11-14T01:02:12;15.63;;;12.30;;
18455;SDS011;9357;49.900;8.208;2022-11-14T01:03:46;18.60;;;12.60;;
18455;SDS011;9357;49.900;8.208;2022-11-14T01:05:19;16.20;;;12.73;;
18455;SDS011;9357;49.900;8.208;2022-11-14T01:06:52;17.50;;;13.05;;
18455;SDS011;9357;49.900;8.208;2022-11-14T01:08:26;19.75;;;13.75;;
18455;SDS011;9357;49.900;8.208;2022-11-14T01:09:58;17.42;;;13.18;;
18455;SDS011;9357;49.900;8.208;2022-11-14T01:11:31;18.67;;;14.10;;
18455;SDS011;9357;49.900;8.208;2022-11-14T01:13:04;21.02;;;14.88;;
18455;SDS011;9357;49.900;8.208;2022-11-14T01:14:37;22.77;;;15.88;;
18455;SDS011;9357;49.900;8.208;2022-11-14T01:16:10;25.83;;;17.02;;
18455;SDS011;9357;49.900;8.208;2022-11-14T01:17:43;29.45;;;18.15;;
18455;SDS011;9357;49.900;8.208;2022-11-14T01:19:16;32.47;;;18.92;;
18455;SDS011;9357;49.900;8.208;2022-11-14T01:20:48;33.47;;;18.40;;
18455;SDS011;9357;49.900;8.208;2022-11-14T01:22:21;34.92;;;18.42;;
18455;SDS011;9357;49.900;8.208;2022-11-14T01:23:55;31.52;;;18.10;;
18455;SDS011;9357;49.900;8.208;2022-11-14T01:25:28;46.05;;;18.48;;
18455;SDS011;9357;49.900;8.208;2022-11-14T01:27:01;47.38;;;17.42;;
18455;SDS011;9357;49.900;8.208;2022-11-14T01:28:34;46.58;;;19.25;;
18455;SDS011;9357;49.900;8.208;2022-11-14T01:30:07;64.15;;;19.38;;
18455;SDS011;9357;49.900;8.208;2022-11-14T01:31:40;64.82;;;19.67;;
18455;SDS011;9357;49.900;8.208;2022-11-14T01:33:13;53.42;;;19.50;;
18455;SDS011;9357;49.900;8.208;2022-11-14T01:34:46;70.70;;;21.10;;
18455;SDS011;9357;49.900;8.208;2022-11-14T01:36:19;55.80;;;20.25;;
18455;SDS011;9357;49.900;8.208;2022-11-14T01:37:52;94.07;;;20.75;;
18455;SDS011;9357;49.900;8.208;2022-11-14T01:39:26;71.32;;;21.05;;
18455;SDS011;9357;49.900;8.208;2022-11-14T01:40:59;58.75;;;20.50;;
18455;SDS011;9357;49.900;8.208;2022-11-14T01:42:32;39.92;;;20.70;;
18455;SDS011;9357;49.900;8.208;2022-11-14T01:44:10;64.78;;;21.33;;
18455;SDS011;9357;49.900;8.208;2022-11-14T01:45:50;49.40;;;21.83;;
18455;SDS011;9357;49.900;8.208;2022-11-14T01:47:25;60.63;;;21.83;;
18455;SDS011;9357;49.900;8.208;2022-11-14T01:49:02;43.20;;;20.77;;
18455;SDS011;9357;49.900;8.208;2022-11-14T01:50:42;42.63;;;20.15;;
18455;SDS011;9357;49.900;8.208;2022-11-14T01:52:15;58.20;;;22.27;;
18455;SDS011;9357;49.900;8.208;2022-11-14T01:53:52;81.30;;;23.80;;
18455;SDS011;9357;49.900;8.208;2022-11-14T01:55:27;43.70;;;21.38;;
18455;SDS011;9357;49.900;8.208;2022-11-14T01:57:01;59.55;;;22.88;;
18455;SDS011;9357;49.900;8.208;2022-11-14T01:58:36;77.80;;;22.23;;
18455;SDS011;9357;49.900;8.208;2022-11-14T02:00:12;52.38;;;22.48;;
18455;SDS011;9357;49.900;8.208;2022-11-14T02:01:46;67.60;;;23.92;;
18455;SDS011;9357;49.900;8.208;2022-11-14T02:03:22;45.85;;;23.55;;
18455;SDS011;9357;49.900;8.208;2022-11-14T02:04:56;68.95;;;24.02;;
18455;SDS011;9357;49.900;8.208;2022-11-14T02:06:33;78.93;;;23.85;;
18455;SDS011;9357;49.900;8.208;2022-11-14T02:08:08;72.25;;;23.73;;
18455;SDS011;9357;49.900;8.208;2022-11-14T02:09:44;50.33;;;23.88;;
18455;SDS011;9357;49.900;8.208;2022-11-14T02:11:20;96.65;;;25.67;;
18455;SDS011;9357;49.900;8.208;2022-11-14T02:12:53;48.30;;;23.92;;
18455;SDS011;9357;49.900;8.208;2022-11-14T02:14:25;60.20;;;25.05;;
18455;SDS011;9357;49.900;8.208;2022-11-14T02:15:58;48.50;;;23.95;;
18455;SDS011;9357;49.900;8.208;2022-11-14T02:17:31;52.05;;;23.88;;
18455;SDS011;9357;49.900;8.208;2022-11-14T02:19:04;66.10;;;24.65;;
18455;SDS011;9357;49.900;8.208;2022-11-14T02:20:38;78.38;;;25.42;;
18455;SDS011;9357;49.900;8.208;2022-11-14T02:22:13;66.93;;;25.35;;
18455;SDS011;9357;49.900;8.208;2022-11-14T02:23:46;52.15;;;25.05;;
18455;SDS011;9357;49.900;8.208;2022-11-14T02:25:19;66.68;;;26.38;;
18455;SDS011;9357;49.900;8.208;2022-11-14T02:26:52;106.30;;;27.08;;
18455;SDS011;9357;49.900;8.208;2022-11-14T02:28:25;62.13;;;25.73;;
18455;SDS011;9357;49.900;8.208;2022-11-14T02:30:02;60.47;;;25.63;;
18455;SDS011;9357;49.900;8.208;2022-11-14T02:31:35;107.32;;;25.60;;
18455;SDS011;9357;49.900;8.208;2022-11-14T02:33:08;72.35;;;24.83;;
18455;SDS011;9357;49.900;8.208;2022-11-14T02:34:41;84.57;;;24.85;;
18455;SDS011;9357;49.900;8.208;2022-11-14T02:36:16;75.55;;;25.17;;
18455;SDS011;9357;49.900;8.208;2022-11-14T02:37:48;63.63;;;25.33;;
18455;SDS011;9357;49.900;8.208;2022-11-14T02:39:21;109.82;;;27.05;;
18455;SDS011;9357;49.900;8.208;2022-11-14T02:40:53;119.15;;;26.95;;
18455;SDS011;9357;49.900;8.208;2022-11-14T02:42:26;103.32;;;26.73;;
18455;SDS011;9357;49.900;8.208;2022-11-14T02:43:58;62.20;;;26.00;;
18455;SDS011;9357;49.900;8.208;2022-11-14T02:45:31;89.75;;;26.27;;
18455;SDS011;9357;49.900;8.208;2022-11-14T02:47:03;75.88;;;25.77;;
18455;SDS011;9357;49.900;8.208;2022-11-14T02:48:36;107.00;;;26.95;;
18455;SDS011;9357;49.900;8.208;2022-11-14T02:50:09;96.90;;;26.58;;
18455;SDS011;9357;49.900;8.208;2022-11-14T02:51:42;110.50;;;28.50;;
18455;SDS011;9357;49.900;8.208;2022-11-14T02:53:15;94.95;;;27.20;;
18455;SDS011;9357;49.900;8.208;2022-11-14T02:54:48;61.75;;;26.15;;
18455;SDS011;9357;49.900;8.208;2022-11-14T02:56:24;66.45;;;27.45;;
18455;SDS011;9357;49.900;8.208;2022-11-14T02:57:57;64.63;;;26.17;;
18455;SDS011;9357;49.900;8.208;2022-11-14T02:59:30;96.88;;;27.08;;
18455;SDS011;9357;49.900;8.208;2022-11-14T03:01:03;93.13;;;27.60;;
18455;SDS011;9357;49.900;8.208;2022-11-14T03:02:51;118.57;;;26.05;;
18455;SDS011;9357;49.900;8.208;2022-11-14T03:04:24;98.68;;;26.58;;
18455;SDS011;9357;49.900;8.208;2022-11-14T03:05:57;105.53;;;26.88;;
18455;SDS011;9357;49.900;8.208;2022-11-14T03:07:32;87.55;;;27.58;;
18455;SDS011;9357;49.900;8.208;2022-11-14T03:09:05;100.80;;;26.67;;
18455;SDS011;9357;49.900;8.208;2022-11-14T03:10:37;89.38;;;26.63;;
18455;SDS011;9357;49.900;8.208;2022-11-14T03:12:10;109.20;;;26.35;;
18455;SDS011;9357;49.900;8.208;2022-11-14T03:13:46;76.20;;;25.75;;
18455;SDS011;9357;49.900;8.208;2022-11-14T03:15:19;101.40;;;25.63;;
18455;SDS011;9357;49.900;8.208;2022-11-14T03:16:53;97.30;;;26.42;;
18455;SDS011;9357;49.900;8.208;2022-11-14T03:18:26;112.18;;;26.85;;
18455;SDS011;9357;49.900;8.208;2022-11-14T03:19:59;79.20;;;26.02;;
18455;SDS011;9357;49.900;8.208;2022-11-14T03:21:32;103.53;;;26.45;;
18455;SDS011;9357;49.900;8.208;2022-11-14T03:23:06;89.18;;;26.40;;
18455;SDS011;9357;49.900;8.208;2022-11-14T03:24:39;82.80;;;26.17;;
18455;SDS011;9357;49.900;8.208;2022-11-14T03:26:12;109.30;;;27.50;;
18455;SDS011;9357;49.900;8.208;2022-11-14T03:27:46;119.75;;;27.42;;
18455;SDS011;9357;49.900;8.208;2022-11-14T03:29:19;107.78;;;27.15;;
18455;SDS011;9357;49.900;8.208;2022-11-14T03:30:50;94.95;;;26.30;;
18455;SDS011;9357;49.900;8.208;2022-11-14T03:32:23;117.53;;;26.83;;
18455;SDS011;9357;49.900;8.208;2022-11-14T03:33:56;106.22;;;25.88;;
18455;SDS011;9357;49.900;8.208;2022-11-14T03:35:29;105.93;;;25.27;;
18455;SDS011;9357;49.900;8.208;2022-11-14T03:37:01;92.00;;;26.65;;
18455;SDS011;9357;49.900;8.208;2022-11-14T03:38:35;137.40;;;26.10;;
18455;SDS011;9357;49.900;8.208;2022-11-14T03:40:08;96.13;;;24.70;;
18455;SDS011;9357;49.900;8.208;2022-11-14T03:41:41;68.03;;;24.60;;
18455;SDS011;9357;49.900;8.208;2022-11-14T03:43:14;72.97;;;24.85;;
18455;SDS011;9357;49.900;8.208;2022-11-14T03:44:47;85.47;;;24.85;;
18455;SDS011;9357;49.900;8.208;2022-11-14T03:46:19;100.68;;;24.05;;
18455;SDS011;9357;49.900;8.208;2022-11-14T03:47:53;69.60;;;23.92;;
18455;SDS011;9357;49.900;8.208;2022-11-14T03:49:25;73.80;;;24.35;;
18455;SDS011;9357;49.900;8.208;2022-11-14T03:50:58;67.75;;;25.05;;
18455;SDS011;9357;49.900;8.208;2022-11-14T03:52:31;67.90;;;22.40;;
18455;SDS011;9357;49.900;8.208;2022-11-14T03:54:05;63.78;;;23.67;;
18455;SDS011;9357;49.900;8.208;2022-11-14T03:55:37;67.57;;;24.05;;
18455;SDS011;9357;49.900;8.208;2022-11-14T03:57:10;83.85;;;24.52;;
18455;SDS011;9357;49.900;8.208;2022-11-14T03:58:43;58.85;;;23.20;;
18455;SDS011;9357;49.900;8.208;2022-11-14T04:00:16;78.03;;;24.63;;
18455;SDS011;9357;49.900;8.208;2022-11-14T04:01:49;54.83;;;23.55;;
18455;SDS011;9357;49.900;8.208;2022-11-14T04:03:22;54.45;;;23.58;;
18455;SDS011;9357;49.900;8.208;2022-11-14T04:04:54;62.63;;;25.08;;
18455;SDS011;9357;49.900;8.208;2022-11-14T04:06:27;93.60;;;24.23;;
18455;SDS011;9357;49.900;8.208;2022-11-14T04:08:00;80.03;;;24.42;;
18455;SDS011;9357;49.900;8.208;2022-11-14T04:09:37;80.50;;;24.00;;
18455;SDS011;9357;49.900;8.208;2022-11-14T04:11:10;97.30;;;24.75;;
18455;SDS011;9357;49.900;8.208;2022-11-14T04:12:45;83.15;;;23.20;;
18455;SDS011;9357;49.900;8.208;2022-11-14T04:14:19;79.53;;;24.10;;
18455;SDS011;9357;49.900;8.208;2022-11-14T04:15:54;66.90;;;24.08;;
18455;SDS011;9357;49.900;8.208;2022-11-14T04:17:28;78.45;;;23.70;;
18455;SDS011;9357;49.900;8.208;2022-11-14T04:19:05;59.72;;;21.67;;
18455;SDS011;9357;49.900;8.208;2022-11-14T04:20:38;54.63;;;22.30;;
18455;SDS011;9357;49.900;8.208;2022-11-14T04:22:10;63.00;;;21.42;;
18455;SDS011;9357;49.900;8.208;2022-11-14T04:23:43;71.70;;;22.77;;
18455;SDS011;9357;49.900;8.208;2022-11-14T04:25:17;87.90;;;23.33;;
18455;SDS011;9357;49.900;8.208;2022-11-14T04:26:50;60.03;;;23.15;;
18455;SDS011;9357;49.900;8.208;2022-11-14T04:28:23;46.55;;;22.65;;
18455;SDS011;9357;49.900;8.208;2022-11-14T04:29:55;67.97;;;22.83;;
18455;SDS011;9357;49.900;8.208;2022-11-14T04:31:28;58.47;;;22.15;;
18455;SDS011;9357;49.900;8.208;2022-11-14T04:33:01;56.17;;;22.50;;
18455;SDS011;9357;49.900;8.208;2022-11-14T04:34:34;61.70;;;22.27;;
18455;SDS011;9357;49.900;8.208;2022-11-14T04:36:07;60.88;;;22.15;;
18455;SDS011;9357;49.900;8.208;2022-11-14T04:37:39;52.63;;;21.50;;
18455;SDS011;9357;49.900;8.208;2022-11-14T04:39:12;62.75;;;23.25;;
18455;SDS011;9357;49.900;8.208;2022-11-14T04:40:49;50.78;;;22.25;;
18455;SDS011;9357;49.900;8.208;2022-11-14T04:42:23;75.93;;;23.25;;
18455;SDS011;9357;49.900;8.208;2022-11-14T04:43:56;76.38;;;22.75;;
18455;SDS011;9357;49.900;8.208;2022-11-14T04:45:29;69.55;;;24.17;;
18455;SDS011;9357;49.900;8.208;2022-11-14T04:47:02;43.85;;;21.80;;
18455;SDS011;9357;49.900;8.208;2022-11-14T04:48:35;58.40;;;22.65;;
18455;SDS011;9357;49.900;8.208;2022-11-14T04:50:08;48.33;;;22.88;;
18455;SDS011;9357;49.900;8.208;2022-11-14T04:51:41;56.17;;;24.40;;
18455;SDS011;9357;49.900;8.208;2022-11-14T04:53:14;51.60;;;23.42;;
18455;SDS011;9357;49.900;8.208;2022-11-14T04:54:47;51.75;;;23.33;;
18455;SDS011;9357;49.900;8.208;2022-11-14T04:56:21;55.55;;;23.92;;
18455;SDS011;9357;49.900;8.208;2022-11-14T04:57:55;59.60;;;24.73;;
18455;SDS011;9357;49.900;8.208;2022-11-14T04:59:29;55.65;;;25.08;;
18455;SDS011;9357;49.900;8.208;2022-11-14T05:01:05;57.75;;;24.70;;
18455;SDS011;9357;49.900;8.208;2022-11-14T05:02:39;57.83;;;25.08;;
18455;SDS011;9357;49.900;8.208;2022-11-14T05:04:11;63.20;;;27.45;;
18455;SDS011;9357;49.900;8.208;2022-11-14T05:05:44;65.20;;;26.45;;
18455;SDS011;9357;49.900;8.208;2022-11-14T05:07:17;61.13;;;25.65;;
18455;SDS011;9357;49.900;8.208;2022-11-14T05:08:49;65.70;;;26.92;;
18455;SDS011;9357;49.900;8.208;2022-11-14T05:10:22;57.65;;;24.85;;
18455;SDS011;9357;49.900;8.208;2022-11-14T05:11:56;59.38;;;25.30;;
18455;SDS011;9357;49.900;8.208;2022-11-14T05:13:28;56.17;;;24.83;;
18455;SDS011;9357;49.900;8.208;2022-11-14T05:15:02;57.63;;;23.92;;
18455;SDS011;9357;49.900;8.208;2022-11-14T05:16:34;53.28;;;24.67;;
18455;SDS011;9357;49.900;8.208;2022-11-14T05:18:06;55.50;;;24.08;;
18455;SDS011;9357;49.900;8.208;2022-11-14T05:19:39;54.75;;;24.15;;
18455;SDS011;9357;49.900;8.208;2022-11-14T05:21:12;58.25;;;24.42;;
18455;SDS011;9357;49.900;8.208;2022-11-14T05:22:45;55.45;;;23.50;;
18455;SDS011;9357;49.900;8.208;2022-11-14T05:24:18;53.22;;;23.55;;
18455;SDS011;9357;49.900;8.208;2022-11-14T05:25:57;61.60;;;23.13;;
18455;SDS011;9357;49.900;8.208;2022-11-14T05:27:32;53.88;;;22.63;;
18455;SDS011;9357;49.900;8.208;2022-11-14T05:29:05;59.22;;;23.17;;
18455;SDS011;9357;49.900;8.208;2022-11-14T05:30:37;53.03;;;22.60;;
18455;SDS011;9357;49.900;8.208;2022-11-14T05:32:10;48.75;;;23.08;;
18455;SDS011;9357;49.900;8.208;2022-11-14T05:33:46;54.20;;;23.88;;
18455;SDS011;9357;49.900;8.208;2022-11-14T05:35:19;49.78;;;22.65;;
18455;SDS011;9357;49.900;8.208;2022-11-14T05:36:52;45.50;;;22.77;;
18455;SDS011;9357;49.900;8.208;2022-11-14T05:38:25;51.40;;;23.13;;
18455;SDS011;9357;49.900;8.208;2022-11-14T05:39:58;66.50;;;23.80;;
18455;SDS011;9357;49.900;8.208;2022-11-14T05:41:31;66.88;;;23.23;;
18455;SDS011;9357;49.900;8.208;2022-11-14T05:43:05;55.03;;;22.75;;
18455;SDS011;9357;49.900;8.208;2022-11-14T05:44:38;50.10;;;22.38;;
18455;SDS011;9357;49.900;8.208;2022-11-14T05:46:11;43.78;;;22.08;;
18455;SDS011;9357;49.900;8.208;2022-11-14T05:47:45;51.05;;;23.35;;
18455;SDS011;9357;49.900;8.208;2022-11-14T05:49:18;55.17;;;23.95;;
18455;SDS011;9357;49.900;8.208;2022-11-14T05:50:52;49.38;;;23.25;;
18455;SDS011;9357;49.900;8.208;2022-11-14T05:52:25;51.80;;;23.45;;
18455;SDS011;9357;49.900;8.208;2022-11-14T05:53:58;52.38;;;23.48;;
18455;SDS011;9357;49.900;8.208;2022-11-14T05:55:31;49.58;;;23.10;;
18455;SDS011;9357;49.900;8.208;2022-11-14T05:57:04;46.85;;;23.10;;
18455;SDS011;9357;49.900;8.208;2022-11-14T05:58:38;51.28;;;23.75;;
18455;SDS011;9357;49.900;8.208;2022-11-14T06:00:11;48.22;;;22.83;;
18455;SDS011;9357;49.900;8.208;2022-11-14T06:01:45;43.92;;;22.00;;
18455;SDS011;9357;49.900;8.208;2022-11-14T06:03:17;44.33;;;21.98;;
18455;SDS011;9357;49.900;8.208;2022-11-14T06:04:50;50.00;;;22.08;;
18455;SDS011;9357;49.900;8.208;2022-11-14T06:06:23;57.00;;;22.80;;
18455;SDS011;9357;49.900;8.208;2022-11-14T06:07:56;41.33;;;20.75;;
18455;SDS011;9357;49.900;8.208;2022-11-14T06:09:29;43.10;;;20.98;;
18455;SDS011;9357;49.900;8.208;2022-11-14T06:11:02;49.00;;;22.08;;
18455;SDS011;9357;49.900;8.208;2022-11-14T06:12:37;58.45;;;21.48;;
18455;SDS011;9357;49.900;8.208;2022-11-14T06:14:11;41.17;;;20.90;;
18455;SDS011;9357;49.900;8.208;2022-11-14T06:15:44;40.92;;;20.77;;
18455;SDS011;9357;49.900;8.208;2022-11-14T06:17:16;54.22;;;22.48;;
18455;SDS011;9357;49.900;8.208;2022-11-14T06:18:51;51.97;;;22.40;;
18455;SDS011;9357;49.900;8.208;2022-11-14T06:20:24;52.55;;;21.80;;
18455;SDS011;9357;49.900;8.208;2022-11-14T06:21:57;47.50;;;22.10;;
18455;SDS011;9357;49.900;8.208;2022-11-14T06:23:29;49.13;;;22.30;;
18455;SDS011;9357;49.900;8.208;2022-11-14T06:25:02;48.42;;;22.40;;
18455;SDS011;9357;49.900;8.208;2022-11-14T06:26:35;69.30;;;22.75;;
18455;SDS011;9357;49.900;8.208;2022-11-14T06:28:08;54.38;;;22.05;;
18455;SDS011;9357;49.900;8.208;2022-11-14T06:29:42;44.63;;;22.10;;
18455;SDS011;9357;49.900;8.208;2022-11-14T06:31:15;104.50;;;24.63;;
18455;SDS011;9357;49.900;8.208;2022-11-14T06:32:49;45.80;;;22.25;;
18455;SDS011;9357;49.900;8.208;2022-11-14T06:34:21;44.78;;;22.17;;
18455;SDS011;9357;49.900;8.208;2022-11-14T06:35:57;39.75;;;21.63;;
18455;SDS011;9357;49.900;8.208;2022-11-14T06:37:31;61.33;;;23.48;;
18455;SDS011;9357;49.900;8.208;2022-11-14T06:39:04;46.42;;;22.95;;
18455;SDS011;9357;49.900;8.208;2022-11-14T06:40:36;121.00;;;26.10;;
18455;SDS011;9357;49.900;8.208;2022-11-14T06:42:09;44.85;;;23.20;;
18455;SDS011;9357;49.900;8.208;2022-11-14T06:43:42;46.22;;;23.05;;
18455;SDS011;9357;49.900;8.208;2022-11-14T06:45:18;41.13;;;21.75;;
18455;SDS011;9357;49.900;8.208;2022-11-14T06:46:51;47.30;;;23.45;;
18455;SDS011;9357;49.900;8.208;2022-11-14T06:48:24;48.50;;;24.92;;
18455;SDS011;9357;49.900;8.208;2022-11-14T06:49:55;44.92;;;23.10;;
18455;SDS011;9357;49.900;8.208;2022-11-14T06:51:28;55.20;;;24.15;;
18455;SDS011;9357;49.900;8.208;2022-11-14T06:53:01;67.40;;;24.88;;
18455;SDS011;9357;49.900;8.208;2022-11-14T06:54:34;47.75;;;24.65;;
18455;SDS011;9357;49.900;8.208;2022-11-14T06:56:07;53.80;;;23.65;;
18455;SDS011;9357;49.900;8.208;2022-11-14T06:57:41;58.05;;;25.05;;
18455;SDS011;9357;49.900;8.208;2022-11-14T06:59:14;46.97;;;24.30;;
18455;SDS011;9357;49.900;8.208;2022-11-14T07:00:48;57.63;;;24.52;;
18455;SDS011;9357;49.900;8.208;2022-11-14T07:02:21;59.13;;;25.63;;
18455;SDS011;9357;49.900;8.208;2022-11-14T07:03:54;45.33;;;23.50;;
18455;SDS011;9357;49.900;8.208;2022-11-14T07:05:28;48.13;;;24.13;;
18455;SDS011;9357;49.900;8.208;2022-11-14T07:07:01;49.45;;;23.92;;
18455;SDS011;9357;49.900;8.208;2022-11-14T07:08:34;48.70;;;23.15;;
18455;SDS011;9357;49.900;8.208;2022-11-14T07:10:07;46.97;;;24.17;;
18455;SDS011;9357;49.900;8.208;2022-11-14T07:11:40;49.03;;;24.20;;
18455;SDS011;9357;49.900;8.208;2022-11-14T07:13:16;41.75;;;23.02;;
18455;SDS011;9357;49.900;8.208;2022-11-14T07:14:48;47.72;;;23.75;;
18455;SDS011;9357;49.900;8.208;2022-11-14T07:16:23;41.33;;;21.85;;
18455;SDS011;9357;49.900;8.208;2022-11-14T07:17:59;44.05;;;23.30;;
18455;SDS011;9357;49.900;8.208;2022-11-14T07:19:32;45.15;;;23.05;;
18455;SDS011;9357;49.900;8.208;2022-11-14T07:21:05;42.67;;;22.38;;
18455;SDS011;9357;49.900;8.208;2022-11-14T07:22:38;43.70;;;23.52;;
18455;SDS011;9357;49.900;8.208;2022-11-14T07:24:10;43.60;;;22.27;;
18455;SDS011;9357;49.900;8.208;2022-11-14T07:25:43;45.08;;;23.08;;
18455;SDS011;9357;49.900;8.208;2022-11-14T07:27:16;42.38;;;23.08;;
18455;SDS011;9357;49.900;8.208;2022-11-14T07:28:49;39.90;;;22.20;;
18455;SDS011;9357;49.900;8.208;2022-11-14T07:30:26;45.05;;;22.90;;
18455;SDS011;9357;49.900;8.208;2022-11-14T07:32:00;42.70;;;23.15;;
18455;SDS011;9357;49.900;8.208;2022-11-14T07:33:33;39.42;;;22.27;;
18455;SDS011;9357;49.900;8.208;2022-11-14T07:35:07;44.03;;;23.83;;
18455;SDS011;9357;49.900;8.208;2022-11-14T07:36:40;42.67;;;23.85;;
18455;SDS011;9357;49.900;8.208;2022-11-14T07:38:13;42.63;;;23.00;;
18455;SDS011;9357;49.900;8.208;2022-11-14T07:39:45;42.35;;;23.00;;
18455;SDS011;9357;49.900;8.208;2022-11-14T07:41:18;46.67;;;24.08;;
18455;SDS011;9357;49.900;8.208;2022-11-14T07:42:52;41.35;;;23.42;;
18455;SDS011;9357;49.900;8.208;2022-11-14T07:44:28;45.00;;;23.45;;
18455;SDS011;9357;49.900;8.208;2022-11-14T07:46:02;43.22;;;23.60;;
18455;SDS011;9357;49.900;8.208;2022-11-14T07:47:38;42.38;;;23.40;;
18455;SDS011;9357;49.900;8.208;2022-11-14T07:49:10;42.78;;;23.00;;
18455;SDS011;9357;49.900;8.208;2022-11-14T07:50:43;38.75;;;22.08;;
18455;SDS011;9357;49.900;8.208;2022-11-14T07:52:17;41.22;;;23.13;;
18455;SDS011;9357;49.900;8.208;2022-11-14T07:53:50;42.17;;;23.80;;
18455;SDS011;9357;49.900;8.208;2022-11-14T07:55:23;46.08;;;23.80;;
18455;SDS011;9357;49.900;8.208;2022-11-14T07:56:56;36.63;;;22.55;;
18455;SDS011;9357;49.900;8.208;2022-11-14T07:58:29;40.72;;;22.90;;
18455;SDS011;9357;49.900;8.208;2022-11-14T08:00:02;38.92;;;22.17;;
18455;SDS011;9357;49.900;8.208;2022-11-14T08:01:35;37.13;;;21.30;;
18455;SDS011;9357;49.900;8.208;2022-11-14T08:03:09;38.38;;;21.80;;
18455;SDS011;9357;49.900;8.208;2022-11-14T08:04:42;41.72;;;22.00;;
18455;SDS011;9357;49.900;8.208;2022-11-14T08:06:15;38.25;;;22.02;;
18455;SDS011;9357;49.900;8.208;2022-11-14T08:07:49;35.63;;;21.17;;
18455;SDS011;9357;49.900;8.208;2022-11-14T08:09:22;37.33;;;21.83;;
18455;SDS011;9357;49.900;8.208;2022-11-14T08:10:56;37.22;;;21.80;;
18455;SDS011;9357;49.900;8.208;2022-11-14T08:12:29;36.13;;;21.77;;
18455;SDS011;9357;49.900;8.208;2022-11-14T08:14:01;34.45;;;21.60;;
18455;SDS011;9357;49.900;8.208;2022-11-14T08:15:34;34.60;;;21.27;;
18455;SDS011;9357;49.900;8.208;2022-11-14T08:17:07;34.22;;;20.27;;
18455;SDS011;9357;49.900;8.208;2022-11-14T08:18:41;35.90;;;21.75;;
18455;SDS011;9357;49.900;8.208;2022-11-14T08:20:14;38.13;;;21.55;;
18455;SDS011;9357;49.900;8.208;2022-11-14T08:21:47;34.45;;;21.70;;
18455;SDS011;9357;49.900;8.208;2022-11-14T08:23:19;37.03;;;20.70;;
18455;SDS011;9357;49.900;8.208;2022-11-14T08:24:52;35.42;;;20.30;;
18455;SDS011;9357;49.900;8.208;2022-11-14T08:26:25;36.17;;;21.02;;
18455;SDS011;9357;49.900;8.208;2022-11-14T08:28:04;37.45;;;20.45;;
18455;SDS011;9357;49.900;8.208;2022-11-14T08:29:37;33.90;;;21.63;;
18455;SDS011;9357;49.900;8.208;2022-11-14T08:31:10;35.45;;;21.30;;
18455;SDS011;9357;49.900;8.208;2022-11-14T08:32:43;35.83;;;21.15;;
18455;SDS011;9357;49.900;8.208;2022-11-14T08:34:17;34.42;;;21.45;;
18455;SDS011;9357;49.900;8.208;2022-11-14T08:35:52;36.67;;;22.75;;
18455;SDS011;9357;49.900;8.208;2022-11-14T08:37:25;33.63;;;21.73;;
18455;SDS011;9357;49.900;8.208;2022-11-14T08:38:57;33.60;;;21.15;;
18455;SDS011;9357;49.900;8.208;2022-11-14T08:40:32;34.85;;;22.15;;
18455;SDS011;9357;49.900;8.208;2022-11-14T08:42:05;36.00;;;21.63;;
18455;SDS011;9357;49.900;8.208;2022-11-14T08:43:38;37.08;;;22.98;;
18455;SDS011;9357;49.900;8.208;2022-11-14T08:45:10;38.47;;;22.75;;
18455;SDS011;9357;49.900;8.208;2022-11-14T08:46:43;38.00;;;22.20;;
18455;SDS011;9357;49.900;8.208;2022-11-14T08:48:16;39.25;;;23.75;;
18455;SDS011;9357;49.900;8.208;2022-11-14T08:49:50;37.72;;;23.15;;
18455;SDS011;9357;49.900;8.208;2022-11-14T08:51:23;39.30;;;23.40;;
18455;SDS011;9357;49.900;8.208;2022-11-14T08:52:55;36.63;;;23.33;;
18455;SDS011;9357;49.900;8.208;2022-11-14T08:54:28;39.70;;;24.35;;
18455;SDS011;9357;49.900;8.208;2022-11-14T08:56:01;37.20;;;23.90;;
18455;SDS011;9357;49.900;8.208;2022-11-14T08:57:34;37.38;;;24.60;;
18455;SDS011;9357;49.900;8.208;2022-11-14T08:59:07;42.17;;;25.63;;
18455;SDS011;9357;49.900;8.208;2022-11-14T09:00:39;39.10;;;23.98;;
18455;SDS011;9357;49.900;8.208;2022-11-14T09:02:13;42.63;;;25.05;;
18455;SDS011;9357;49.900;8.208;2022-11-14T09:03:45;41.78;;;25.80;;
18455;SDS011;9357;49.900;8.208;2022-11-14T09:05:20;35.30;;;23.35;;
18455;SDS011;9357;49.900;8.208;2022-11-14T09:06:52;41.10;;;24.70;;
18455;SDS011;9357;49.900;8.208;2022-11-14T09:08:26;40.80;;;25.25;;
18455;SDS011;9357;49.900;8.208;2022-11-14T09:10:00;39.47;;;23.67;;
18455;SDS011;9357;49.900;8.208;2022-11-14T09:11:33;39.15;;;22.83;;
18455;SDS011;9357;49.900;8.208;2022-11-14T09:13:05;39.90;;;23.00;;